sensor_id;sensor_type;location;lat;lon;timestamp;P1;durP1;ratioP1;P2;durP2;ratioP2
61393;SDS011;48555;50.952;-0.120;2023-07-13T00:00:52;10.50;;;2.85;;
61393;SDS011;48555;50.952;-0.120;2023-07-13T00:03:18;12.70;;;3.00;;
61393;SDS011;48555;50.952;-0.120;2023-07-13T00:05:43;11.27;;;2.65;;
61393;SDS011;48555;50.952;-0.120;2023-07-13T00:08:08;9.70;;;2.47;;
61393;SDS011;48555;50.952;-0.120;2023-07-13T00:10:38;7.97;;;2.90;;
61393;SDS011;48555;50.952;-0.120;2023-07-13T00:13:05;10.07;;;2.90;;
61393;SDS011;48555;50.952;-0.120;2023-07-13T00:15:31;10.95;;;2.92;;
61393;SDS011;48555;50.952;-0.120;2023-07-13T00:17:57;10.25;;;2.67;;
61393;SDS011;48555;50.952;-0.120;2023-07-13T00:20:23;8.77;;;2.55;;
61393;SDS011;48555;50.952;-0.120;2023-07-13T00:22:50;11.38;;;2.75;;
61393;SDS011;48555;50.952;-0.120;2023-07-13T00:25:19;10.00;;;2.80;;
61393;SDS011;48555;50.952;-0.120;2023-07-13T00:27:46;7.75;;;2.55;;
61393;SDS011;48555;50.952;-0.120;2023-07-13T00:30:14;11.20;;;3.15;;
61393;SDS011;48555;50.952;-0.120;2023-07-13T00:32:39;10.75;;;3.10;;
61393;SDS011;48555;50.952;-0.120;2023-07-13T00:35:04;8.20;;;2.83;;
61393;SDS011;48555;50.952;-0.120;2023-07-13T00:37:30;8.23;;;2.70;;
61393;SDS011;48555;50.952;-0.120;2023-07-13T00:39:56;9.15;;;2.50;;
61393;SDS011;48555;50.952;-0.120;2023-07-13T00:42:22;8.23;;;2.90;;
61393;SDS011;48555;50.952;-0.120;2023-07-13T00:47:45;10.32;;;3.03;;
61393;SDS011;48555;50.952;-0.120;2023-07-13T00:50:12;12.55;;;3.08;;
61393;SDS011;48555;50.952;-0.120;2023-07-13T00:52:40;9.60;;;2.78;;
61393;SDS011;48555;50.952;-0.120;2023-07-13T00:55:09;10.75;;;2.80;;
61393;SDS011;48555;50.952;-0.120;2023-07-13T00:57:37;11.18;;;2.92;;
61393;SDS011;48555;50.952;-0.120;2023-07-13T01:00:04;9.55;;;2.28;;
61393;SDS011;48555;50.952;-0.120;2023-07-13T01:02:33;10.23;;;2.90;;
61393;SDS011;48555;50.952;-0.120;2023-07-13T01:05:00;10.15;;;2.38;;
61393;SDS011;48555;50.952;-0.120;2023-07-13T01:07:26;8.88;;;2.47;;
61393;SDS011;48555;50.952;-0.120;2023-07-13T01:09:52;8.70;;;2.58;;
61393;SDS011;48555;50.952;-0.120;2023-07-13T01:12:17;6.63;;;2.45;;
61393;SDS011;48555;50.952;-0.120;2023-07-13T01:14:43;6.95;;;2.30;;
61393;SDS011;48555;50.952;-0.120;2023-07-13T01:17:09;8.77;;;2.40;;
61393;SDS011;48555;50.952;-0.120;2023-07-13T01:19:42;7.60;;;2.20;;
61393;SDS011;48555;50.952;-0.120;2023-07-13T01:22:10;8.40;;;2.50;;
61393;SDS011;48555;50.952;-0.120;2023-07-13T01:24:39;7.50;;;2.33;;
61393;SDS011;48555;50.952;-0.120;2023-07-13T01:27:08;7.22;;;2.63;;
61393;SDS011;48555;50.952;-0.120;2023-07-13T01:29:34;6.78;;;2.17;;
61393;SDS011;48555;50.952;-0.120;2023-07-13T01:32:12;8.90;;;2.55;;
61393;SDS011;48555;50.952;-0.120;2023-07-13T01:34:47;7.72;;;2.35;;
61393;SDS011;48555;50.952;-0.120;2023-07-13T01:37:13;7.45;;;2.20;;
61393;SDS011;48555;50.952;-0.120;2023-07-13T01:39:38;7.28;;;2.53;;
61393;SDS011;48555;50.952;-0.120;2023-07-13T01:42:03;7.38;;;2.38;;
61393;SDS011;48555;50.952;-0.120;2023-07-13T01:44:29;4.65;;;2.00;;
61393;SDS011;48555;50.952;-0.120;2023-07-13T01:46:55;7.30;;;2.10;;
61393;SDS011;48555;50.952;-0.120;2023-07-13T01:49:20;7.13;;;2.05;;
61393;SDS011;48555;50.952;-0.120;2023-07-13T01:51:45;9.95;;;2.53;;
61393;SDS011;48555;50.952;-0.120;2023-07-13T01:54:11;6.78;;;2.00;;
61393;SDS011;48555;50.952;-0.120;2023-07-13T01:56:36;6.25;;;2.13;;
61393;SDS011;48555;50.952;-0.120;2023-07-13T01:59:01;8.43;;;2.35;;
61393;SDS011;48555;50.952;-0.120;2023-07-13T02:01:27;6.32;;;2.35;;
61393;SDS011;48555;50.952;-0.120;2023-07-13T02:03:52;6.07;;;2.60;;
61393;SDS011;48555;50.952;-0.120;2023-07-13T02:06:17;6.45;;;2.40;;
61393;SDS011;48555;50.952;-0.120;2023-07-13T02:08:43;5.70;;;2.05;;
61393;SDS011;48555;50.952;-0.120;2023-07-13T02:11:08;5.82;;;2.10;;
61393;SDS011;48555;50.952;-0.120;2023-07-13T02:13:34;5.90;;;2.50;;
61393;SDS011;48555;50.952;-0.120;2023-07-13T02:15:59;5.53;;;2.10;;
61393;SDS011;48555;50.952;-0.120;2023-07-13T02:18:25;5.50;;;2.00;;
61393;SDS011;48555;50.952;-0.120;2023-07-13T02:20:50;4.32;;;2.20;;
61393;SDS011;48555;50.952;-0.120;2023-07-13T02:23:16;5.15;;;2.10;;
61393;SDS011;48555;50.952;-0.120;2023-07-13T02:25:41;6.18;;;2.25;;
61393;SDS011;48555;50.952;-0.120;2023-07-13T02:28:06;4.18;;;1.80;;
61393;SDS011;48555;50.952;-0.120;2023-07-13T02:30:32;5.13;;;2.60;;
61393;SDS011;48555;50.952;-0.120;2023-07-13T02:32:57;5.75;;;2.03;;
61393;SDS011;48555;50.952;-0.120;2023-07-13T02:35:23;5.80;;;2.00;;
61393;SDS011;48555;50.952;-0.120;2023-07-13T02:37:48;5.22;;;1.92;;
61393;SDS011;48555;50.952;-0.120;2023-07-13T02:40:14;4.88;;;1.77;;
61393;SDS011;48555;50.952;-0.120;2023-07-13T02:42:39;4.82;;;1.95;;
61393;SDS011;48555;50.952;-0.120;2023-07-13T02:45:05;5.13;;;2.00;;
61393;SDS011;48555;50.952;-0.120;2023-07-13T02:47:32;4.63;;;1.92;;
61393;SDS011;48555;50.952;-0.120;2023-07-13T02:49:58;5.85;;;2.10;;
61393;SDS011;48555;50.952;-0.120;2023-07-13T02:52:24;6.13;;;2.10;;
61393;SDS011;48555;50.952;-0.120;2023-07-13T02:54:50;5.93;;;1.90;;
61393;SDS011;48555;50.952;-0.120;2023-07-13T02:57:15;6.13;;;2.28;;
61393;SDS011;48555;50.952;-0.120;2023-07-13T02:59:41;4.65;;;2.25;;
61393;SDS011;48555;50.952;-0.120;2023-07-13T03:02:06;3.97;;;2.05;;
61393;SDS011;48555;50.952;-0.120;2023-07-13T03:04:31;5.90;;;2.05;;
61393;SDS011;48555;50.952;-0.120;2023-07-13T03:06:57;4.47;;;2.00;;
61393;SDS011;48555;50.952;-0.120;2023-07-13T03:09:23;5.53;;;2.28;;
61393;SDS011;48555;50.952;-0.120;2023-07-13T03:11:49;5.60;;;2.15;;
61393;SDS011;48555;50.952;-0.120;2023-07-13T03:14:14;6.00;;;2.33;;
61393;SDS011;48555;50.952;-0.120;2023-07-13T03:16:40;4.85;;;1.90;;
61393;SDS011;48555;50.952;-0.120;2023-07-13T03:19:05;3.90;;;1.80;;
61393;SDS011;48555;50.952;-0.120;2023-07-13T03:21:30;4.97;;;2.15;;
61393;SDS011;48555;50.952;-0.120;2023-07-13T03:23:56;5.50;;;2.10;;
61393;SDS011;48555;50.952;-0.120;2023-07-13T03:26:21;6.47;;;2.05;;
61393;SDS011;48555;50.952;-0.120;2023-07-13T03:28:47;5.43;;;2.10;;
61393;SDS011;48555;50.952;-0.120;2023-07-13T03:31:17;4.90;;;2.30;;
61393;SDS011;48555;50.952;-0.120;2023-07-13T03:33:45;4.45;;;2.15;;
61393;SDS011;48555;50.952;-0.120;2023-07-13T03:36:15;5.78;;;2.10;;
61393;SDS011;48555;50.952;-0.120;2023-07-13T03:38:47;5.80;;;1.88;;
61393;SDS011;48555;50.952;-0.120;2023-07-13T03:41:14;4.80;;;2.00;;
61393;SDS011;48555;50.952;-0.120;2023-07-13T03:43:40;5.57;;;2.00;;
61393;SDS011;48555;50.952;-0.120;2023-07-13T03:46:05;4.13;;;1.80;;
61393;SDS011;48555;50.952;-0.120;2023-07-13T03:48:30;6.65;;;2.00;;
61393;SDS011;48555;50.952;-0.120;2023-07-13T03:50:56;7.10;;;2.35;;
61393;SDS011;48555;50.952;-0.120;2023-07-13T03:53:21;5.35;;;2.08;;
61393;SDS011;48555;50.952;-0.120;2023-07-13T03:55:46;4.60;;;2.03;;
61393;SDS011;48555;50.952;-0.120;2023-07-13T03:58:29;6.60;;;2.20;;
61393;SDS011;48555;50.952;-0.120;2023-07-13T04:00:57;7.72;;;2.25;;
61393;SDS011;48555;50.952;-0.120;2023-07-13T04:03:23;6.00;;;2.33;;
61393;SDS011;48555;50.952;-0.120;2023-07-13T04:05:49;7.43;;;2.20;;
61393;SDS011;48555;50.952;-0.120;2023-07-13T04:08:14;6.22;;;2.20;;
61393;SDS011;48555;50.952;-0.120;2023-07-13T04:10:40;4.40;;;2.20;;
61393;SDS011;48555;50.952;-0.120;2023-07-13T04:13:05;5.25;;;2.20;;
61393;SDS011;48555;50.952;-0.120;2023-07-13T04:15:31;4.93;;;2.08;;
61393;SDS011;48555;50.952;-0.120;2023-07-13T04:17:57;4.47;;;1.80;;
61393;SDS011;48555;50.952;-0.120;2023-07-13T04:20:23;5.57;;;2.05;;
61393;SDS011;48555;50.952;-0.120;2023-07-13T04:22:50;5.93;;;2.13;;
61393;SDS011;48555;50.952;-0.120;2023-07-13T04:25:15;5.82;;;2.10;;
61393;SDS011;48555;50.952;-0.120;2023-07-13T04:27:41;4.28;;;1.80;;
61393;SDS011;48555;50.952;-0.120;2023-07-13T04:30:06;5.47;;;2.10;;
61393;SDS011;48555;50.952;-0.120;2023-07-13T04:32:32;3.95;;;2.03;;
61393;SDS011;48555;50.952;-0.120;2023-07-13T04:34:58;5.95;;;2.30;;
61393;SDS011;48555;50.952;-0.120;2023-07-13T04:37:24;4.30;;;1.90;;
61393;SDS011;48555;50.952;-0.120;2023-07-13T04:39:50;4.75;;;1.80;;
61393;SDS011;48555;50.952;-0.120;2023-07-13T04:42:15;5.07;;;2.10;;
61393;SDS011;48555;50.952;-0.120;2023-07-13T04:44:40;5.18;;;1.90;;
61393;SDS011;48555;50.952;-0.120;2023-07-13T04:47:06;5.57;;;2.20;;
61393;SDS011;48555;50.952;-0.120;2023-07-13T04:49:31;4.25;;;2.00;;
61393;SDS011;48555;50.952;-0.120;2023-07-13T04:51:56;3.55;;;1.95;;
61393;SDS011;48555;50.952;-0.120;2023-07-13T04:54:22;5.57;;;2.10;;
61393;SDS011;48555;50.952;-0.120;2023-07-13T04:56:47;5.90;;;1.98;;
61393;SDS011;48555;50.952;-0.120;2023-07-13T04:59:12;8.13;;;2.08;;
61393;SDS011;48555;50.952;-0.120;2023-07-13T05:01:38;6.07;;;2.10;;
61393;SDS011;48555;50.952;-0.120;2023-07-13T05:04:04;7.22;;;2.08;;
61393;SDS011;48555;50.952;-0.120;2023-07-13T05:06:29;4.53;;;1.90;;
61393;SDS011;48555;50.952;-0.120;2023-07-13T05:08:55;6.47;;;2.00;;
61393;SDS011;48555;50.952;-0.120;2023-07-13T05:11:20;5.28;;;1.85;;
61393;SDS011;48555;50.952;-0.120;2023-07-13T05:13:46;7.80;;;2.00;;
61393;SDS011;48555;50.952;-0.120;2023-07-13T05:16:12;5.55;;;2.05;;
61393;SDS011;48555;50.952;-0.120;2023-07-13T05:18:37;5.00;;;2.00;;
61393;SDS011;48555;50.952;-0.120;2023-07-13T05:21:04;5.30;;;1.80;;
61393;SDS011;48555;50.952;-0.120;2023-07-13T05:23:32;5.57;;;2.40;;
61393;SDS011;48555;50.952;-0.120;2023-07-13T05:25:58;5.30;;;2.00;;
61393;SDS011;48555;50.952;-0.120;2023-07-13T05:28:25;4.15;;;1.77;;
61393;SDS011;48555;50.952;-0.120;2023-07-13T05:30:51;5.18;;;1.70;;
61393;SDS011;48555;50.952;-0.120;2023-07-13T05:33:18;6.47;;;1.90;;
61393;SDS011;48555;50.952;-0.120;2023-07-13T05:35:44;6.15;;;2.00;;
61393;SDS011;48555;50.952;-0.120;2023-07-13T05:38:09;6.85;;;2.00;;
61393;SDS011;48555;50.952;-0.120;2023-07-13T05:40:34;4.68;;;1.83;;
61393;SDS011;48555;50.952;-0.120;2023-07-13T05:43:00;5.95;;;1.95;;
61393;SDS011;48555;50.952;-0.120;2023-07-13T05:45:26;5.75;;;1.85;;
61393;SDS011;48555;50.952;-0.120;2023-07-13T05:47:51;5.15;;;1.65;;
61393;SDS011;48555;50.952;-0.120;2023-07-13T05:50:17;6.55;;;1.90;;
61393;SDS011;48555;50.952;-0.120;2023-07-13T05:52:42;4.32;;;1.67;;
61393;SDS011;48555;50.952;-0.120;2023-07-13T05:55:08;5.35;;;2.00;;
61393;SDS011;48555;50.952;-0.120;2023-07-13T05:57:33;6.80;;;1.85;;
61393;SDS011;48555;50.952;-0.120;2023-07-13T05:59:59;5.20;;;1.65;;
61393;SDS011;48555;50.952;-0.120;2023-07-13T06:02:24;7.13;;;1.90;;
61393;SDS011;48555;50.952;-0.120;2023-07-13T06:04:50;5.18;;;1.83;;
61393;SDS011;48555;50.952;-0.120;2023-07-13T06:07:16;4.82;;;1.90;;
61393;SDS011;48555;50.952;-0.120;2023-07-13T06:09:41;5.70;;;1.77;;
61393;SDS011;48555;50.952;-0.120;2023-07-13T06:12:07;4.97;;;1.88;;
61393;SDS011;48555;50.952;-0.120;2023-07-13T06:14:32;5.90;;;1.75;;
61393;SDS011;48555;50.952;-0.120;2023-07-13T06:16:58;5.72;;;1.75;;
61393;SDS011;48555;50.952;-0.120;2023-07-13T06:19:23;4.85;;;1.70;;
61393;SDS011;48555;50.952;-0.120;2023-07-13T06:21:48;7.35;;;1.95;;
61393;SDS011;48555;50.952;-0.120;2023-07-13T06:24:14;6.72;;;1.80;;
61393;SDS011;48555;50.952;-0.120;2023-07-13T06:26:39;3.75;;;1.60;;
61393;SDS011;48555;50.952;-0.120;2023-07-13T06:29:04;7.32;;;2.00;;
61393;SDS011;48555;50.952;-0.120;2023-07-13T06:31:30;4.20;;;1.58;;
61393;SDS011;48555;50.952;-0.120;2023-07-13T06:33:56;6.47;;;1.80;;
61393;SDS011;48555;50.952;-0.120;2023-07-13T06:36:21;5.18;;;1.50;;
61393;SDS011;48555;50.952;-0.120;2023-07-13T06:38:46;5.97;;;1.90;;
61393;SDS011;48555;50.952;-0.120;2023-07-13T06:41:12;5.57;;;1.90;;
61393;SDS011;48555;50.952;-0.120;2023-07-13T06:43:37;4.03;;;1.70;;
61393;SDS011;48555;50.952;-0.120;2023-07-13T06:46:02;5.43;;;1.75;;
61393;SDS011;48555;50.952;-0.120;2023-07-13T06:48:28;4.80;;;1.75;;
61393;SDS011;48555;50.952;-0.120;2023-07-13T06:50:53;5.65;;;1.80;;
61393;SDS011;48555;50.952;-0.120;2023-07-13T06:53:19;5.50;;;2.00;;
61393;SDS011;48555;50.952;-0.120;2023-07-13T06:55:45;8.18;;;2.10;;
61393;SDS011;48555;50.952;-0.120;2023-07-13T06:58:11;5.13;;;1.65;;
61393;SDS011;48555;50.952;-0.120;2023-07-13T07:00:37;4.78;;;1.55;;
61393;SDS011;48555;50.952;-0.120;2023-07-13T07:03:02;5.45;;;1.80;;
61393;SDS011;48555;50.952;-0.120;2023-07-13T07:05:28;5.47;;;1.85;;
61393;SDS011;48555;50.952;-0.120;2023-07-13T07:07:54;4.97;;;1.75;;
61393;SDS011;48555;50.952;-0.120;2023-07-13T07:10:21;6.03;;;2.05;;
61393;SDS011;48555;50.952;-0.120;2023-07-13T07:12:47;6.05;;;1.60;;
61393;SDS011;48555;50.952;-0.120;2023-07-13T07:15:12;4.60;;;1.55;;
61393;SDS011;48555;50.952;-0.120;2023-07-13T07:17:38;6.05;;;1.70;;
61393;SDS011;48555;50.952;-0.120;2023-07-13T07:20:04;4.93;;;1.80;;
61393;SDS011;48555;50.952;-0.120;2023-07-13T07:22:30;4.75;;;1.63;;
61393;SDS011;48555;50.952;-0.120;2023-07-13T07:24:56;4.00;;;1.60;;
61393;SDS011;48555;50.952;-0.120;2023-07-13T07:27:22;5.82;;;1.85;;
61393;SDS011;48555;50.952;-0.120;2023-07-13T07:29:48;4.75;;;2.00;;
61393;SDS011;48555;50.952;-0.120;2023-07-13T07:32:13;5.78;;;1.88;;
61393;SDS011;48555;50.952;-0.120;2023-07-13T07:34:39;8.65;;;2.50;;
61393;SDS011;48555;50.952;-0.120;2023-07-13T07:37:04;6.55;;;2.08;;
61393;SDS011;48555;50.952;-0.120;2023-07-13T07:39:30;4.13;;;1.80;;
61393;SDS011;48555;50.952;-0.120;2023-07-13T07:41:55;7.55;;;2.17;;
61393;SDS011;48555;50.952;-0.120;2023-07-13T07:44:21;5.10;;;1.52;;
61393;SDS011;48555;50.952;-0.120;2023-07-13T07:46:46;6.60;;;2.10;;
61393;SDS011;48555;50.952;-0.120;2023-07-13T07:49:12;5.97;;;1.75;;
61393;SDS011;48555;50.952;-0.120;2023-07-13T07:51:38;6.72;;;1.77;;
61393;SDS011;48555;50.952;-0.120;2023-07-13T07:54:03;5.05;;;1.77;;
61393;SDS011;48555;50.952;-0.120;2023-07-13T07:56:29;4.18;;;1.63;;
61393;SDS011;48555;50.952;-0.120;2023-07-13T07:58:55;4.35;;;1.75;;
61393;SDS011;48555;50.952;-0.120;2023-07-13T08:01:20;5.70;;;2.13;;
61393;SDS011;48555;50.952;-0.120;2023-07-13T08:03:46;4.57;;;1.67;;
61393;SDS011;48555;50.952;-0.120;2023-07-13T08:06:11;6.82;;;2.10;;
61393;SDS011;48555;50.952;-0.120;2023-07-13T08:08:37;6.47;;;1.83;;
61393;SDS011;48555;50.952;-0.120;2023-07-13T08:11:03;5.35;;;2.13;;
61393;SDS011;48555;50.952;-0.120;2023-07-13T08:13:30;5.82;;;1.80;;
61393;SDS011;48555;50.952;-0.120;2023-07-13T08:15:55;4.82;;;1.70;;
61393;SDS011;48555;50.952;-0.120;2023-07-13T08:18:21;7.15;;;2.28;;
61393;SDS011;48555;50.952;-0.120;2023-07-13T08:20:46;6.57;;;1.75;;
61393;SDS011;48555;50.952;-0.120;2023-07-13T08:23:11;9.02;;;2.20;;
61393;SDS011;48555;50.952;-0.120;2023-07-13T08:25:37;5.65;;;2.10;;
61393;SDS011;48555;50.952;-0.120;2023-07-13T08:28:02;7.80;;;1.95;;
61393;SDS011;48555;50.952;-0.120;2023-07-13T08:30:28;5.28;;;1.95;;
61393;SDS011;48555;50.952;-0.120;2023-07-13T08:32:54;6.20;;;2.03;;
61393;SDS011;48555;50.952;-0.120;2023-07-13T08:35:19;6.82;;;1.98;;
61393;SDS011;48555;50.952;-0.120;2023-07-13T08:37:45;5.82;;;2.15;;
61393;SDS011;48555;50.952;-0.120;2023-07-13T08:40:10;6.68;;;2.25;;
61393;SDS011;48555;50.952;-0.120;2023-07-13T08:42:39;6.10;;;2.28;;
61393;SDS011;48555;50.952;-0.120;2023-07-13T08:45:08;3.90;;;1.90;;
61393;SDS011;48555;50.952;-0.120;2023-07-13T08:47:46;5.45;;;1.90;;
61393;SDS011;48555;50.952;-0.120;2023-07-13T08:50:17;6.75;;;2.00;;
61393;SDS011;48555;50.952;-0.120;2023-07-13T08:52:44;4.72;;;1.73;;
61393;SDS011;48555;50.952;-0.120;2023-07-13T08:55:21;5.07;;;1.67;;
61393;SDS011;48555;50.952;-0.120;2023-07-13T08:57:56;5.93;;;2.00;;
61393;SDS011;48555;50.952;-0.120;2023-07-13T09:03:24;4.68;;;1.75;;
61393;SDS011;48555;50.952;-0.120;2023-07-13T09:05:57;3.40;;;1.60;;
61393;SDS011;48555;50.952;-0.120;2023-07-13T09:13:51;4.88;;;1.70;;
61393;SDS011;48555;50.952;-0.120;2023-07-13T09:16:38;5.20;;;1.90;;
61393;SDS011;48555;50.952;-0.120;2023-07-13T09:19:05;5.18;;;1.90;;
61393;SDS011;48555;50.952;-0.120;2023-07-13T09:21:36;4.05;;;1.80;;
61393;SDS011;48555;50.952;-0.120;2023-07-13T09:26:49;7.65;;;1.77;;
61393;SDS011;48555;50.952;-0.120;2023-07-13T09:29:21;7.80;;;2.00;;
61393;SDS011;48555;50.952;-0.120;2023-07-13T09:31:53;4.88;;;1.55;;
61393;SDS011;48555;50.952;-0.120;2023-07-13T09:34:21;5.18;;;1.90;;
61393;SDS011;48555;50.952;-0.120;2023-07-13T09:36:46;5.90;;;1.77;;
61393;SDS011;48555;50.952;-0.120;2023-07-13T09:39:15;5.25;;;1.63;;
61393;SDS011;48555;50.952;-0.120;2023-07-13T09:41:55;6.80;;;2.22;;
61393;SDS011;48555;50.952;-0.120;2023-07-13T09:44:30;6.43;;;1.80;;
61393;SDS011;48555;50.952;-0.120;2023-07-13T09:47:00;6.90;;;1.90;;
61393;SDS011;48555;50.952;-0.120;2023-07-13T09:49:27;6.63;;;2.00;;
61393;SDS011;48555;50.952;-0.120;2023-07-13T09:51:58;5.50;;;1.95;;
61393;SDS011;48555;50.952;-0.120;2023-07-13T09:54:28;7.93;;;1.83;;
61393;SDS011;48555;50.952;-0.120;2023-07-13T09:56:55;7.70;;;1.88;;
61393;SDS011;48555;50.952;-0.120;2023-07-13T09:59:22;5.15;;;1.85;;
61393;SDS011;48555;50.952;-0.120;2023-07-13T10:01:49;5.00;;;1.73;;
61393;SDS011;48555;50.952;-0.120;2023-07-13T10:04:19;4.88;;;1.52;;
61393;SDS011;48555;50.952;-0.120;2023-07-13T10:06:45;6.50;;;1.85;;
61393;SDS011;48555;50.952;-0.120;2023-07-13T10:09:15;6.47;;;1.83;;
61393;SDS011;48555;50.952;-0.120;2023-07-13T10:11:42;2.95;;;1.13;;
61393;SDS011;48555;50.952;-0.120;2023-07-13T10:16:39;4.05;;;1.33;;
61393;SDS011;48555;50.952;-0.120;2023-07-13T10:19:26;4.65;;;1.38;;
61393;SDS011;48555;50.952;-0.120;2023-07-13T10:24:27;8.32;;;1.50;;
61393;SDS011;48555;50.952;-0.120;2023-07-13T10:27:05;4.40;;;1.23;;
61393;SDS011;48555;50.952;-0.120;2023-07-13T10:29:38;6.30;;;1.55;;
61393;SDS011;48555;50.952;-0.120;2023-07-13T10:32:09;4.30;;;1.27;;
61393;SDS011;48555;50.952;-0.120;2023-07-13T10:34:36;5.85;;;1.45;;
61393;SDS011;48555;50.952;-0.120;2023-07-13T10:37:02;6.20;;;1.77;;
61393;SDS011;48555;50.952;-0.120;2023-07-13T10:39:28;6.25;;;1.60;;
61393;SDS011;48555;50.952;-0.120;2023-07-13T10:42:04;6.32;;;1.73;;
61393;SDS011;48555;50.952;-0.120;2023-07-13T10:44:37;7.57;;;1.92;;
61393;SDS011;48555;50.952;-0.120;2023-07-13T10:47:07;3.15;;;1.08;;
61393;SDS011;48555;50.952;-0.120;2023-07-13T10:49:38;6.82;;;1.35;;
61393;SDS011;48555;50.952;-0.120;2023-07-13T10:52:28;4.47;;;1.38;;
61393;SDS011;48555;50.952;-0.120;2023-07-13T10:58:11;3.45;;;1.33;;
61393;SDS011;48555;50.952;-0.120;2023-07-13T11:00:43;4.72;;;1.38;;
61393;SDS011;48555;50.952;-0.120;2023-07-13T11:03:12;4.38;;;1.40;;
61393;SDS011;48555;50.952;-0.120;2023-07-13T11:05:41;4.77;;;1.23;;
61393;SDS011;48555;50.952;-0.120;2023-07-13T11:10:54;5.05;;;1.20;;
61393;SDS011;48555;50.952;-0.120;2023-07-13T11:13:37;5.15;;;1.30;;
61393;SDS011;48555;50.952;-0.120;2023-07-13T11:16:14;4.65;;;1.40;;
61393;SDS011;48555;50.952;-0.120;2023-07-13T11:22:01;5.75;;;1.33;;
61393;SDS011;48555;50.952;-0.120;2023-07-13T11:25:02;3.88;;;1.15;;
61393;SDS011;48555;50.952;-0.120;2023-07-13T11:27:46;7.93;;;1.40;;
61393;SDS011;48555;50.952;-0.120;2023-07-13T11:32:41;3.92;;;1.40;;
61393;SDS011;48555;50.952;-0.120;2023-07-13T11:35:12;6.03;;;1.40;;
61393;SDS011;48555;50.952;-0.120;2023-07-13T11:37:41;7.43;;;1.90;;
61393;SDS011;48555;50.952;-0.120;2023-07-13T11:40:11;5.78;;;1.58;;
61393;SDS011;48555;50.952;-0.120;2023-07-13T11:42:39;4.38;;;1.55;;
61393;SDS011;48555;50.952;-0.120;2023-07-13T11:45:14;7.13;;;1.75;;
61393;SDS011;48555;50.952;-0.120;2023-07-13T11:47:45;8.68;;;2.10;;
61393;SDS011;48555;50.952;-0.120;2023-07-13T11:50:20;7.25;;;1.70;;
61393;SDS011;48555;50.952;-0.120;2023-07-13T11:52:47;8.10;;;2.05;;
61393;SDS011;48555;50.952;-0.120;2023-07-13T11:55:16;6.00;;;1.50;;
61393;SDS011;48555;50.952;-0.120;2023-07-13T11:57:47;4.70;;;1.83;;
61393;SDS011;48555;50.952;-0.120;2023-07-13T12:00:21;6.85;;;1.95;;
61393;SDS011;48555;50.952;-0.120;2023-07-13T12:02:49;6.18;;;1.50;;
61393;SDS011;48555;50.952;-0.120;2023-07-13T12:05:17;5.07;;;1.92;;
61393;SDS011;48555;50.952;-0.120;2023-07-13T12:07:44;6.15;;;1.60;;
61393;SDS011;48555;50.952;-0.120;2023-07-13T12:10:20;7.47;;;1.90;;
61393;SDS011;48555;50.952;-0.120;2023-07-13T12:12:51;8.38;;;2.20;;
61393;SDS011;48555;50.952;-0.120;2023-07-13T12:15:19;5.25;;;2.17;;
61393;SDS011;48555;50.952;-0.120;2023-07-13T12:17:47;6.88;;;1.90;;
61393;SDS011;48555;50.952;-0.120;2023-07-13T12:20:26;7.28;;;2.15;;
61393;SDS011;48555;50.952;-0.120;2023-07-13T12:22:55;7.00;;;1.80;;
61393;SDS011;48555;50.952;-0.120;2023-07-13T12:25:22;5.50;;;2.00;;
61393;SDS011;48555;50.952;-0.120;2023-07-13T12:27:49;8.00;;;2.00;;
61393;SDS011;48555;50.952;-0.120;2023-07-13T12:30:22;6.38;;;1.90;;
61393;SDS011;48555;50.952;-0.120;2023-07-13T12:32:59;5.43;;;1.88;;
61393;SDS011;48555;50.952;-0.120;2023-07-13T12:35:30;6.30;;;1.98;;
61393;SDS011;48555;50.952;-0.120;2023-07-13T12:37:58;7.32;;;1.92;;
61393;SDS011;48555;50.952;-0.120;2023-07-13T12:40:26;3.72;;;1.52;;
61393;SDS011;48555;50.952;-0.120;2023-07-13T12:42:57;6.47;;;1.80;;
61393;SDS011;48555;50.952;-0.120;2023-07-13T12:45:26;8.38;;;2.08;;
61393;SDS011;48555;50.952;-0.120;2023-07-13T12:47:59;4.57;;;1.60;;
61393;SDS011;48555;50.952;-0.120;2023-07-13T12:50:39;6.60;;;1.70;;
61393;SDS011;48555;50.952;-0.120;2023-07-13T12:53:09;4.90;;;1.77;;
61393;SDS011;48555;50.952;-0.120;2023-07-13T12:55:52;4.90;;;1.90;;
61393;SDS011;48555;50.952;-0.120;2023-07-13T13:00:50;3.42;;;1.50;;
61393;SDS011;48555;50.952;-0.120;2023-07-13T13:03:37;4.93;;;1.90;;
61393;SDS011;48555;50.952;-0.120;2023-07-13T13:06:17;4.75;;;1.83;;
61393;SDS011;48555;50.952;-0.120;2023-07-13T13:08:44;5.25;;;1.75;;
61393;SDS011;48555;50.952;-0.120;2023-07-13T13:11:11;4.45;;;1.70;;
61393;SDS011;48555;50.952;-0.120;2023-07-13T13:13:36;7.07;;;1.77;;
61393;SDS011;48555;50.952;-0.120;2023-07-13T13:16:04;6.50;;;1.90;;
61393;SDS011;48555;50.952;-0.120;2023-07-13T13:18:34;8.55;;;2.08;;
61393;SDS011;48555;50.952;-0.120;2023-07-13T13:21:01;5.53;;;1.98;;
61393;SDS011;48555;50.952;-0.120;2023-07-13T13:23:26;6.32;;;2.10;;
61393;SDS011;48555;50.952;-0.120;2023-07-13T13:25:52;6.72;;;2.17;;
61393;SDS011;48555;50.952;-0.120;2023-07-13T13:28:21;5.88;;;2.00;;
61393;SDS011;48555;50.952;-0.120;2023-07-13T13:30:47;6.20;;;1.85;;
61393;SDS011;48555;50.952;-0.120;2023-07-13T13:33:15;5.65;;;2.15;;
61393;SDS011;48555;50.952;-0.120;2023-07-13T13:35:43;6.95;;;2.17;;
61393;SDS011;48555;50.952;-0.120;2023-07-13T13:38:15;6.60;;;1.95;;
61393;SDS011;48555;50.952;-0.120;2023-07-13T13:40:48;7.30;;;2.35;;
61393;SDS011;48555;50.952;-0.120;2023-07-13T13:43:18;6.38;;;2.20;;
61393;SDS011;48555;50.952;-0.120;2023-07-13T13:45:52;6.07;;;2.25;;
61393;SDS011;48555;50.952;-0.120;2023-07-13T13:48:21;6.30;;;2.20;;
61393;SDS011;48555;50.952;-0.120;2023-07-13T13:50:55;8.70;;;2.53;;
61393;SDS011;48555;50.952;-0.120;2023-07-13T13:53:21;7.68;;;2.40;;
61393;SDS011;48555;50.952;-0.120;2023-07-13T13:55:48;6.35;;;2.30;;
61393;SDS011;48555;50.952;-0.120;2023-07-13T13:58:14;6.10;;;2.25;;
61393;SDS011;48555;50.952;-0.120;2023-07-13T14:00:39;5.95;;;2.00;;
61393;SDS011;48555;50.952;-0.120;2023-07-13T14:03:05;4.90;;;2.17;;
61393;SDS011;48555;50.952;-0.120;2023-07-13T14:05:38;5.45;;;1.80;;
61393;SDS011;48555;50.952;-0.120;2023-07-13T14:08:08;6.28;;;2.00;;
61393;SDS011;48555;50.952;-0.120;2023-07-13T14:10:37;5.70;;;2.13;;
61393;SDS011;48555;50.952;-0.120;2023-07-13T14:13:03;7.20;;;2.22;;
61393;SDS011;48555;50.952;-0.120;2023-07-13T14:15:30;5.28;;;1.80;;
61393;SDS011;48555;50.952;-0.120;2023-07-13T14:17:58;4.13;;;2.10;;
61393;SDS011;48555;50.952;-0.120;2023-07-13T14:20:24;6.80;;;2.22;;
61393;SDS011;48555;50.952;-0.120;2023-07-13T14:22:51;7.07;;;2.33;;
61393;SDS011;48555;50.952;-0.120;2023-07-13T14:25:18;5.10;;;2.03;;
61393;SDS011;48555;50.952;-0.120;2023-07-13T14:27:53;6.13;;;2.15;;
61393;SDS011;48555;50.952;-0.120;2023-07-13T14:30:24;6.65;;;2.10;;
61393;SDS011;48555;50.952;-0.120;2023-07-13T14:32:50;6.65;;;2.47;;
61393;SDS011;48555;50.952;-0.120;2023-07-13T14:35:16;4.13;;;2.03;;
61393;SDS011;48555;50.952;-0.120;2023-07-13T14:37:43;6.80;;;2.30;;
61393;SDS011;48555;50.952;-0.120;2023-07-13T14:40:16;5.13;;;1.95;;
61393;SDS011;48555;50.952;-0.120;2023-07-13T14:42:44;8.68;;;2.33;;
61393;SDS011;48555;50.952;-0.120;2023-07-13T14:45:16;7.55;;;2.63;;
61393;SDS011;48555;50.952;-0.120;2023-07-13T14:47:44;5.55;;;2.30;;
61393;SDS011;48555;50.952;-0.120;2023-07-13T14:50:16;7.47;;;2.40;;
61393;SDS011;48555;50.952;-0.120;2023-07-13T14:52:44;5.53;;;2.03;;
61393;SDS011;48555;50.952;-0.120;2023-07-13T14:55:12;7.03;;;2.20;;
61393;SDS011;48555;50.952;-0.120;2023-07-13T14:57:42;9.60;;;2.17;;
61393;SDS011;48555;50.952;-0.120;2023-07-13T15:00:17;5.95;;;1.98;;
61393;SDS011;48555;50.952;-0.120;2023-07-13T15:02:44;6.35;;;2.15;;
61393;SDS011;48555;50.952;-0.120;2023-07-13T15:05:16;6.97;;;2.38;;
61393;SDS011;48555;50.952;-0.120;2023-07-13T15:07:44;12.90;;;2.38;;
61393;SDS011;48555;50.952;-0.120;2023-07-13T15:10:17;6.65;;;2.22;;